sensor_id;sensor_type;location;lat;lon;timestamp;pressure;altitude;pressure_sealevel;temperature;humidity
36950;BME280;22861;55.824;37.660;2022-07-06T00:02:23;99872.59;;;21.06;71.14
36950;BME280;22861;55.824;37.660;2022-07-06T00:04:48;99865.84;;;21.02;70.40
36950;BME280;22861;55.824;37.660;2022-07-06T00:07:14;99869.56;;;21.00;70.33
36950;BME280;22861;55.824;37.660;2022-07-06T00:09:40;99861.72;;;20.98;70.06
36950;BME280;22861;55.824;37.660;2022-07-06T00:12:06;99870.25;;;20.90;69.64
36950;BME280;22861;55.824;37.660;2022-07-06T00:14:32;99861.00;;;20.85;69.83
36950;BME280;22861;55.824;37.660;2022-07-06T00:16:58;99863.00;;;20.81;69.75
36950;BME280;22861;55.824;37.660;2022-07-06T00:19:23;99863.97;;;20.80;70.04
36950;BME280;22861;55.824;37.660;2022-07-06T00:21:49;99859.97;;;20.74;69.71
36950;BME280;22861;55.824;37.660;2022-07-06T00:24:14;99854.09;;;20.71;69.79
36950;BME280;22861;55.824;37.660;2022-07-06T00:26:43;99844.69;;;20.67;69.66
36950;BME280;22861;55.824;37.660;2022-07-06T00:29:09;99852.81;;;20.64;69.57
36950;BME280;22861;55.824;37.660;2022-07-06T00:31:34;99847.53;;;20.64;69.78
36950;BME280;22861;55.824;37.660;2022-07-06T00:34:00;99851.00;;;20.64;69.60
36950;BME280;22861;55.824;37.660;2022-07-06T00:36:26;99853.66;;;20.64;69.46
36950;BME280;22861;55.824;37.660;2022-07-06T00:38:52;99852.81;;;20.64;69.48
36950;BME280;22861;55.824;37.660;2022-07-06T00:41:18;99845.50;;;20.67;69.47
36950;BME280;22861;55.824;37.660;2022-07-06T00:43:51;99844.47;;;20.81;69.83
36950;BME280;22861;55.824;37.660;2022-07-06T00:46:17;99846.22;;;20.69;69.46
36950;BME280;22861;55.824;37.660;2022-07-06T00:48:42;99848.16;;;20.67;69.35
36950;BME280;22861;55.824;37.660;2022-07-06T00:51:08;99855.38;;;20.65;69.16
36950;BME280;22861;55.824;37.660;2022-07-06T00:53:34;99854.47;;;20.65;69.58
36950;BME280;22861;55.824;37.660;2022-07-06T00:56:00;99857.25;;;20.63;69.60
36950;BME280;22861;55.824;37.660;2022-07-06T00:58:26;99856.75;;;20.58;69.51
36950;BME280;22861;55.824;37.660;2022-07-06T01:00:52;99854.94;;;20.58;69.67
36950;BME280;22861;55.824;37.660;2022-07-06T01:03:17;99861.09;;;20.59;69.77
36950;BME280;22861;55.824;37.660;2022-07-06T01:05:43;99860.97;;;20.60;69.67
36950;BME280;22861;55.824;37.660;2022-07-06T01:08:09;99854.72;;;20.61;69.91
36950;BME280;22861;55.824;37.660;2022-07-06T01:10:35;99857.13;;;20.65;69.69
36950;BME280;22861;55.824;37.660;2022-07-06T01:13:01;99859.38;;;20.71;69.59
36950;BME280;22861;55.824;37.660;2022-07-06T01:15:26;99858.41;;;20.72;69.47
36950;BME280;22861;55.824;37.660;2022-07-06T01:17:52;99851.81;;;20.77;69.25
36950;BME280;22861;55.824;37.660;2022-07-06T01:20:22;99852.47;;;20.92;69.08
36950;BME280;22861;55.824;37.660;2022-07-06T01:22:50;99851.34;;;20.84;69.03
36950;BME280;22861;55.824;37.660;2022-07-06T01:25:16;99854.00;;;20.84;68.85
36950;BME280;22861;55.824;37.660;2022-07-06T01:27:42;99863.75;;;20.83;69.22
36950;BME280;22861;55.824;37.660;2022-07-06T01:30:10;99858.00;;;20.89;68.99
36950;BME280;22861;55.824;37.660;2022-07-06T01:32:36;99859.88;;;20.87;68.89
36950;BME280;22861;55.824;37.660;2022-07-06T01:35:03;99857.53;;;20.95;68.83
36950;BME280;22861;55.824;37.660;2022-07-06T01:37:30;99854.66;;;20.99;68.61
36950;BME280;22861;55.824;37.660;2022-07-06T01:40:07;99859.41;;;21.29;68.35
36950;BME280;22861;55.824;37.660;2022-07-06T01:42:33;99866.97;;;21.11;68.04
36950;BME280;22861;55.824;37.660;2022-07-06T01:44:59;99875.50;;;21.14;67.76
36950;BME280;22861;55.824;37.660;2022-07-06T01:47:25;99864.31;;;21.22;67.69
36950;BME280;22861;55.824;37.660;2022-07-06T01:49:50;99865.06;;;21.24;67.32
36950;BME280;22861;55.824;37.660;2022-07-06T01:52:16;99858.44;;;21.30;67.01
36950;BME280;22861;55.824;37.660;2022-07-06T01:54:42;99861.94;;;21.42;67.04
36950;BME280;22861;55.824;37.660;2022-07-06T01:57:08;99856.94;;;21.50;66.62
36950;BME280;22861;55.824;37.660;2022-07-06T01:59:33;99855.25;;;21.60;66.32
36950;BME280;22861;55.824;37.660;2022-07-06T02:01:59;99860.06;;;21.66;66.36
36950;BME280;22861;55.824;37.660;2022-07-06T02:04:24;99873.44;;;21.76;66.39
36950;BME280;22861;55.824;37.660;2022-07-06T02:06:50;99867.66;;;21.82;66.29
36950;BME280;22861;55.824;37.660;2022-07-06T02:09:15;99865.13;;;21.81;66.09
36950;BME280;22861;55.824;37.660;2022-07-06T02:11:42;99869.44;;;21.82;66.02
36950;BME280;22861;55.824;37.660;2022-07-06T02:14:07;99866.94;;;21.80;66.00
36950;BME280;22861;55.824;37.660;2022-07-06T02:16:33;99865.50;;;21.76;66.13
36950;BME280;22861;55.824;37.660;2022-07-06T02:18:58;99872.94;;;21.71;66.26
36950;BME280;22861;55.824;37.660;2022-07-06T02:21:24;99875.13;;;21.66;66.22
36950;BME280;22861;55.824;37.660;2022-07-06T02:23:49;99875.84;;;21.68;66.50
36950;BME280;22861;55.824;37.660;2022-07-06T02:26:15;99873.06;;;21.70;66.64
36950;BME280;22861;55.824;37.660;2022-07-06T02:28:40;99871.41;;;21.68;66.52
36950;BME280;22861;55.824;37.660;2022-07-06T02:31:06;99877.66;;;21.67;66.44
36950;BME280;22861;55.824;37.660;2022-07-06T02:33:31;99883.78;;;21.68;66.56
36950;BME280;22861;55.824;37.660;2022-07-06T02:35:57;99875.59;;;21.71;66.60
36950;BME280;22861;55.824;37.660;2022-07-06T02:38:22;99878.97;;;21.84;66.24
36950;BME280;22861;55.824;37.660;2022-07-06T02:40:48;99879.31;;;22.14;65.88
36950;BME280;22861;55.824;37.660;2022-07-06T02:43:14;99886.81;;;22.64;64.56
36950;BME280;22861;55.824;37.660;2022-07-06T02:45:39;99875.78;;;23.33;62.39
36950;BME280;22861;55.824;37.660;2022-07-06T02:48:05;99881.84;;;23.97;60.62
36950;BME280;22861;55.824;37.660;2022-07-06T02:50:30;99872.41;;;24.43;58.84
36950;BME280;22861;55.824;37.660;2022-07-06T02:52:56;99872.16;;;24.95;57.79
36950;BME280;22861;55.824;37.660;2022-07-06T02:55:21;99876.88;;;25.41;56.14
36950;BME280;22861;55.824;37.660;2022-07-06T02:57:47;99872.34;;;25.88;54.56
36950;BME280;22861;55.824;37.660;2022-07-06T03:00:13;99872.25;;;26.18;53.96
36950;BME280;22861;55.824;37.660;2022-07-06T03:02:39;99871.59;;;26.52;53.16
36950;BME280;22861;55.824;37.660;2022-07-06T03:05:05;99869.94;;;26.69;52.47
36950;BME280;22861;55.824;37.660;2022-07-06T03:07:30;99871.38;;;26.81;51.92
36950;BME280;22861;55.824;37.660;2022-07-06T03:09:56;99864.31;;;26.98;51.22
36950;BME280;22861;55.824;37.660;2022-07-06T03:12:21;99864.19;;;26.99;51.00
36950;BME280;22861;55.824;37.660;2022-07-06T03:14:47;99848.09;;;27.17;50.89
36950;BME280;22861;55.824;37.660;2022-07-06T03:17:12;99844.91;;;27.14;51.95
36950;BME280;22861;55.824;37.660;2022-07-06T03:19:38;99842.25;;;27.14;51.26
36950;BME280;22861;55.824;37.660;2022-07-06T03:22:04;99838.44;;;27.16;51.08
36950;BME280;22861;55.824;37.660;2022-07-06T03:24:29;99843.16;;;27.23;51.53
36950;BME280;22861;55.824;37.660;2022-07-06T03:26:55;99841.78;;;27.19;51.39
36950;BME280;22861;55.824;37.660;2022-07-06T03:29:20;99845.28;;;27.19;51.27
36950;BME280;22861;55.824;37.660;2022-07-06T03:31:46;99850.63;;;27.45;51.16
36950;BME280;22861;55.824;37.660;2022-07-06T03:34:12;99850.38;;;27.57;50.57
36950;BME280;22861;55.824;37.660;2022-07-06T03:36:38;99851.44;;;27.64;50.53
36950;BME280;22861;55.824;37.660;2022-07-06T03:39:04;99854.75;;;27.58;51.18
36950;BME280;22861;55.824;37.660;2022-07-06T03:41:30;99860.41;;;27.55;51.93
36950;BME280;22861;55.824;37.660;2022-07-06T03:43:55;99849.41;;;27.58;52.04
36950;BME280;22861;55.824;37.660;2022-07-06T03:46:21;99850.72;;;27.62;51.13
36950;BME280;22861;55.824;37.660;2022-07-06T03:48:46;99853.41;;;27.62;51.61
36950;BME280;22861;55.824;37.660;2022-07-06T03:51:12;99854.44;;;27.69;50.44
36950;BME280;22861;55.824;37.660;2022-07-06T03:53:37;99855.34;;;27.78;52.35
36950;BME280;22861;55.824;37.660;2022-07-06T03:56:03;99855.34;;;27.78;52.30
36950;BME280;22861;55.824;37.660;2022-07-06T03:58:47;99853.06;;;27.91;52.24
36950;BME280;22861;55.824;37.660;2022-07-06T04:01:13;99855.63;;;28.09;51.75
36950;BME280;22861;55.824;37.660;2022-07-06T04:03:38;99858.19;;;28.27;51.46
36950;BME280;22861;55.824;37.660;2022-07-06T04:06:04;99858.22;;;28.52;50.70
36950;BME280;22861;55.824;37.660;2022-07-06T04:08:30;99860.44;;;28.73;49.74
36950;BME280;22861;55.824;37.660;2022-07-06T04:10:56;99860.09;;;29.17;48.04
36950;BME280;22861;55.824;37.660;2022-07-06T04:13:22;99856.03;;;29.54;46.99
36950;BME280;22861;55.824;37.660;2022-07-06T04:15:48;99850.91;;;29.84;46.07
36950;BME280;22861;55.824;37.660;2022-07-06T04:18:14;99851.75;;;30.16;45.28
36950;BME280;22861;55.824;37.660;2022-07-06T04:20:40;99854.97;;;30.34;42.42
36950;BME280;22861;55.824;37.660;2022-07-06T04:23:05;99851.59;;;30.41;43.16
36950;BME280;22861;55.824;37.660;2022-07-06T04:25:30;99855.94;;;30.50;41.65
36950;BME280;22861;55.824;37.660;2022-07-06T04:27:56;99850.44;;;30.43;42.33
36950;BME280;22861;55.824;37.660;2022-07-06T04:30:21;99856.94;;;30.49;42.10
36950;BME280;22861;55.824;37.660;2022-07-06T04:32:47;99856.34;;;30.62;41.24
36950;BME280;22861;55.824;37.660;2022-07-06T04:35:13;99844.84;;;30.91;40.84
36950;BME280;22861;55.824;37.660;2022-07-06T04:37:38;99848.44;;;30.83;39.82
36950;BME280;22861;55.824;37.660;2022-07-06T04:40:04;99846.84;;;31.12;40.53
36950;BME280;22861;55.824;37.660;2022-07-06T04:42:30;99846.81;;;31.35;39.11
36950;BME280;22861;55.824;37.660;2022-07-06T04:44:55;99844.94;;;31.51;38.69
36950;BME280;22861;55.824;37.660;2022-07-06T04:47:21;99846.44;;;31.38;38.12
36950;BME280;22861;55.824;37.660;2022-07-06T04:49:47;99851.97;;;31.22;37.77
36950;BME280;22861;55.824;37.660;2022-07-06T04:52:12;99840.66;;;31.12;38.10
36950;BME280;22861;55.824;37.660;2022-07-06T04:54:38;99840.66;;;31.12;38.30
36950;BME280;22861;55.824;37.660;2022-07-06T04:57:04;99840.47;;;31.28;38.45
36950;BME280;22861;55.824;37.660;2022-07-06T04:59:29;99849.22;;;31.60;39.87
36950;BME280;22861;55.824;37.660;2022-07-06T05:01:55;99840.09;;;31.76;39.59
36950;BME280;22861;55.824;37.660;2022-07-06T05:04:20;99839.16;;;31.99;39.06
36950;BME280;22861;55.824;37.660;2022-07-06T05:06:47;99837.38;;;32.06;39.33
36950;BME280;22861;55.824;37.660;2022-07-06T05:09:13;99842.75;;;32.21;38.69
36950;BME280;22861;55.824;37.660;2022-07-06T05:11:39;99833.50;;;32.52;38.50
36950;BME280;22861;55.824;37.660;2022-07-06T05:14:05;99832.50;;;32.53;38.69
36950;BME280;22861;55.824;37.660;2022-07-06T05:16:31;99833.38;;;32.60;38.93
36950;BME280;22861;55.824;37.660;2022-07-06T05:18:57;99828.19;;;32.58;37.61
36950;BME280;22861;55.824;37.660;2022-07-06T05:21:22;99845.59;;;32.56;37.38
36950;BME280;22861;55.824;37.660;2022-07-06T05:23:48;99831.75;;;32.87;37.74
36950;BME280;22861;55.824;37.660;2022-07-06T05:26:13;99827.63;;;32.85;37.76
36950;BME280;22861;55.824;37.660;2022-07-06T05:28:39;99827.63;;;32.85;38.61
36950;BME280;22861;55.824;37.660;2022-07-06T05:31:05;99812.03;;;32.80;37.70
36950;BME280;22861;55.824;37.660;2022-07-06T05:33:30;99823.19;;;32.77;36.87
36950;BME280;22861;55.824;37.660;2022-07-06T05:35:56;99827.50;;;32.71;37.40
36950;BME280;22861;55.824;37.660;2022-07-06T05:38:21;99825.03;;;32.55;38.15
36950;BME280;22861;55.824;37.660;2022-07-06T05:40:47;99827.34;;;32.58;38.01
36950;BME280;22861;55.824;37.660;2022-07-06T05:43:12;99819.25;;;32.58;38.68
36950;BME280;22861;55.824;37.660;2022-07-06T05:45:38;99829.72;;;32.46;40.05
36950;BME280;22861;55.824;37.660;2022-07-06T05:48:03;99828.91;;;32.45;39.87
36950;BME280;22861;55.824;37.660;2022-07-06T05:50:47;99825.19;;;32.47;38.85
36950;BME280;22861;55.824;37.660;2022-07-06T05:53:13;99824.03;;;32.56;38.27
36950;BME280;22861;55.824;37.660;2022-07-06T05:55:38;99822.09;;;32.71;37.33
36950;BME280;22861;55.824;37.660;2022-07-06T05:58:04;99815.03;;;32.70;37.94
36950;BME280;22861;55.824;37.660;2022-07-06T06:00:29;99819.66;;;32.55;35.99
36950;BME280;22861;55.824;37.660;2022-07-06T06:02:55;99820.69;;;32.32;36.35
36950;BME280;22861;55.824;37.660;2022-07-06T06:05:21;99820.81;;;32.24;36.70
36950;BME280;22861;55.824;37.660;2022-07-06T06:07:47;99821.63;;;32.24;37.48
36950;BME280;22861;55.824;37.660;2022-07-06T06:10:14;99820.81;;;32.24;37.46
36950;BME280;22861;55.824;37.660;2022-07-06T06:12:41;99820.00;;;32.45;38.25
36950;BME280;22861;55.824;37.660;2022-07-06T06:15:07;99818.56;;;32.49;37.93
36950;BME280;22861;55.824;37.660;2022-07-06T06:17:35;99832.09;;;32.56;37.83
36950;BME280;22861;55.824;37.660;2022-07-06T06:20:03;99818.13;;;32.67;38.53
36950;BME280;22861;55.824;37.660;2022-07-06T06:22:29;99811.38;;;32.56;37.97
36950;BME280;22861;55.824;37.660;2022-07-06T06:24:55;99807.47;;;32.59;37.87
36950;BME280;22861;55.824;37.660;2022-07-06T06:27:20;99810.66;;;32.48;38.59
36950;BME280;22861;55.824;37.660;2022-07-06T06:29:46;99811.72;;;32.47;38.44
36950;BME280;22861;55.824;37.660;2022-07-06T06:32:12;99813.16;;;32.49;37.83
36950;BME280;22861;55.824;37.660;2022-07-06T06:34:39;99813.31;;;32.41;37.87
36950;BME280;22861;55.824;37.660;2022-07-06T06:37:04;99807.47;;;32.37;38.32
36950;BME280;22861;55.824;37.660;2022-07-06T06:39:30;99803.31;;;32.35;37.87
36950;BME280;22861;55.824;37.660;2022-07-06T06:41:55;99810.66;;;32.26;37.70
36950;BME280;22861;55.824;37.660;2022-07-06T06:44:21;99806.25;;;32.18;37.68
36950;BME280;22861;55.824;37.660;2022-07-06T06:46:51;99802.72;;;32.18;37.66
36950;BME280;22861;55.824;37.660;2022-07-06T06:49:19;99801.94;;;31.87;38.65
36950;BME280;22861;55.824;37.660;2022-07-06T06:51:45;99801.41;;;31.77;38.78
36950;BME280;22861;55.824;37.660;2022-07-06T06:54:10;99803.19;;;31.70;37.96
36950;BME280;22861;55.824;37.660;2022-07-06T06:56:36;99801.06;;;31.65;37.86
36950;BME280;22861;55.824;37.660;2022-07-06T06:59:02;99806.81;;;31.62;38.85
36950;BME280;22861;55.824;37.660;2022-07-06T07:01:27;99804.31;;;31.61;38.71
36950;BME280;22861;55.824;37.660;2022-07-06T07:03:54;99805.22;;;31.53;38.58
36950;BME280;22861;55.824;37.660;2022-07-06T07:06:20;99802.16;;;31.41;39.28
36950;BME280;22861;55.824;37.660;2022-07-06T07:08:46;99811.28;;;31.40;39.68
36950;BME280;22861;55.824;37.660;2022-07-06T07:11:11;99809.59;;;31.39;39.27
36950;BME280;22861;55.824;37.660;2022-07-06T07:13:37;99808.09;;;31.36;37.69
36950;BME280;22861;55.824;37.660;2022-07-06T07:16:02;99811.09;;;31.42;38.62
36950;BME280;22861;55.824;37.660;2022-07-06T07:18:28;99816.91;;;31.45;39.25
36950;BME280;22861;55.824;37.660;2022-07-06T07:20:53;99808.09;;;31.36;36.26
36950;BME280;22861;55.824;37.660;2022-07-06T07:23:19;99799.09;;;31.44;35.29
36950;BME280;22861;55.824;37.660;2022-07-06T07:25:44;99804.22;;;31.54;36.03
36950;BME280;22861;55.824;37.660;2022-07-06T07:28:10;99804.66;;;31.72;36.41
36950;BME280;22861;55.824;37.660;2022-07-06T07:30:35;99791.09;;;31.81;35.68
36950;BME280;22861;55.824;37.660;2022-07-06T07:33:01;99803.78;;;31.87;34.90
36950;BME280;22861;55.824;37.660;2022-07-06T07:35:27;99802.34;;;31.84;35.48
36950;BME280;22861;55.824;37.660;2022-07-06T07:37:53;99804.09;;;31.77;35.11
36950;BME280;22861;55.824;37.660;2022-07-06T07:40:19;99793.22;;;31.85;35.32
36950;BME280;22861;55.824;37.660;2022-07-06T07:42:44;99795.81;;;31.93;35.20
36950;BME280;22861;55.824;37.660;2022-07-06T07:45:11;99803.69;;;31.95;34.81
36950;BME280;22861;55.824;37.660;2022-07-06T07:47:38;99806.19;;;31.97;35.76
36950;BME280;22861;55.824;37.660;2022-07-06T07:50:05;99800.25;;;32.01;35.61
36950;BME280;22861;55.824;37.660;2022-07-06T07:52:31;99799.13;;;31.96;34.87
36950;BME280;22861;55.824;37.660;2022-07-06T07:54:56;99787.97;;;31.99;35.56
36950;BME280;22861;55.824;37.660;2022-07-06T07:57:22;99793.47;;;32.05;35.09
36950;BME280;22861;55.824;37.660;2022-07-06T07:59:47;99798.84;;;32.05;34.86
36950;BME280;22861;55.824;37.660;2022-07-06T08:02:13;99791.88;;;31.96;34.48
36950;BME280;22861;55.824;37.660;2022-07-06T08:04:38;99787.59;;;32.02;35.14
36950;BME280;22861;55.824;37.660;2022-07-06T08:07:04;99796.38;;;32.25;34.74
36950;BME280;22861;55.824;37.660;2022-07-06T08:09:29;99794.06;;;32.44;34.16
36950;BME280;22861;55.824;37.660;2022-07-06T08:11:55;99799.22;;;32.39;34.46
36950;BME280;22861;55.824;37.660;2022-07-06T08:14:21;99792.19;;;32.44;34.39
36950;BME280;22861;55.824;37.660;2022-07-06T08:16:46;99794.00;;;32.59;34.68
36950;BME280;22861;55.824;37.660;2022-07-06T08:19:12;99790.84;;;32.77;34.46
36950;BME280;22861;55.824;37.660;2022-07-06T08:21:40;99793.97;;;32.80;34.42
36950;BME280;22861;55.824;37.660;2022-07-06T08:24:07;99788.78;;;32.79;35.43
36950;BME280;22861;55.824;37.660;2022-07-06T08:26:33;99787.16;;;32.85;33.88
36950;BME280;22861;55.824;37.660;2022-07-06T08:28:58;99784.25;;;33.14;33.90
36950;BME280;22861;55.824;37.660;2022-07-06T08:31:24;99782.75;;;33.47;34.12
36950;BME280;22861;55.824;37.660;2022-07-06T08:33:50;99790.19;;;33.73;33.35
36950;BME280;22861;55.824;37.660;2022-07-06T08:36:18;99789.03;;;34.02;31.84
36950;BME280;22861;55.824;37.660;2022-07-06T08:38:44;99782.59;;;34.17;31.35
36950;BME280;22861;55.824;37.660;2022-07-06T08:41:10;99784.47;;;34.23;31.94
36950;BME280;22861;55.824;37.660;2022-07-06T08:43:36;99788.00;;;34.17;32.82
36950;BME280;22861;55.824;37.660;2022-07-06T08:46:02;99783.22;;;34.06;32.10
36950;BME280;22861;55.824;37.660;2022-07-06T08:48:31;99785.25;;;33.97;31.89
36950;BME280;22861;55.824;37.660;2022-07-06T08:51:01;99778.28;;;33.67;32.82
36950;BME280;22861;55.824;37.660;2022-07-06T08:53:27;99772.47;;;33.64;32.13
36950;BME280;22861;55.824;37.660;2022-07-06T08:55:53;99778.53;;;33.73;33.07
36950;BME280;22861;55.824;37.660;2022-07-06T08:58:19;99774.81;;;33.80;32.53
36950;BME280;22861;55.824;37.660;2022-07-06T09:00:46;99777.16;;;33.97;31.50
36950;BME280;22861;55.824;37.660;2022-07-06T09:03:12;99778.44;;;34.08;31.51
36950;BME280;22861;55.824;37.660;2022-07-06T09:05:39;99774.69;;;34.02;30.22
36950;BME280;22861;55.824;37.660;2022-07-06T09:08:05;99774.47;;;33.90;31.30
36950;BME280;22861;55.824;37.660;2022-07-06T09:10:31;99773.84;;;33.95;31.14
36950;BME280;22861;55.824;37.660;2022-07-06T09:13:07;99769.75;;;34.46;30.92
36950;BME280;22861;55.824;37.660;2022-07-06T09:15:34;99771.44;;;34.33;30.92
36950;BME280;22861;55.824;37.660;2022-07-06T09:18:03;99766.25;;;34.45;30.87
36950;BME280;22861;55.824;37.660;2022-07-06T09:20:29;99759.59;;;34.48;30.37
36950;BME280;22861;55.824;37.660;2022-07-06T09:23:03;99765.81;;;34.75;29.88
36950;BME280;22861;55.824;37.660;2022-07-06T09:25:29;99765.63;;;34.30;30.38
36950;BME280;22861;55.824;37.660;2022-07-06T09:27:57;99763.69;;;34.17;30.90
36950;BME280;22861;55.824;37.660;2022-07-06T09:30:25;99765.53;;;34.03;30.95
36950;BME280;22861;55.824;37.660;2022-07-06T09:32:54;99759.94;;;34.04;31.47
36950;BME280;22861;55.824;37.660;2022-07-06T09:37:45;99758.25;;;33.90;31.00
36950;BME280;22861;55.824;37.660;2022-07-06T09:40:17;99763.03;;;33.95;31.53
36950;BME280;22861;55.824;37.660;2022-07-06T09:42:44;99756.94;;;33.73;32.16
36950;BME280;22861;55.824;37.660;2022-07-06T09:45:09;99756.94;;;33.73;32.58
36950;BME280;22861;55.824;37.660;2022-07-06T09:47:35;99754.91;;;33.81;32.04
36950;BME280;22861;55.824;37.660;2022-07-06T09:50:05;99756.38;;;33.91;31.86
36950;BME280;22861;55.824;37.660;2022-07-06T09:52:34;99756.41;;;33.97;31.90
36950;BME280;22861;55.824;37.660;2022-07-06T09:54:59;99756.81;;;34.01;32.19
36950;BME280;22861;55.824;37.660;2022-07-06T09:57:25;99752.47;;;34.07;31.62
36950;BME280;22861;55.824;37.660;2022-07-06T09:59:51;99755.38;;;34.18;32.15
36950;BME280;22861;55.824;37.660;2022-07-06T10:02:19;99759.19;;;34.31;30.40
36950;BME280;22861;55.824;37.660;2022-07-06T10:04:45;99747.69;;;34.22;30.72
36950;BME280;22861;55.824;37.660;2022-07-06T10:07:12;99736.88;;;34.09;30.45
36950;BME280;22861;55.824;37.660;2022-07-06T10:09:37;99736.44;;;33.98;30.39
36950;BME280;22861;55.824;37.660;2022-07-06T10:12:05;99745.38;;;33.92;31.19
36950;BME280;22861;55.824;37.660;2022-07-06T10:14:33;99740.28;;;33.69;31.08
36950;BME280;22861;55.824;37.660;2022-07-06T10:17:03;99738.41;;;33.63;31.54
36950;BME280;22861;55.824;37.660;2022-07-06T10:19:30;99735.66;;;33.49;31.45
36950;BME280;22861;55.824;37.660;2022-07-06T10:22:00;99741.31;;;33.55;31.50
36950;BME280;22861;55.824;37.660;2022-07-06T10:24:25;99734.00;;;34.24;30.73
36950;BME280;22861;55.824;37.660;2022-07-06T10:26:52;99732.91;;;33.36;32.30
36950;BME280;22861;55.824;37.660;2022-07-06T10:29:18;99732.88;;;33.23;32.91
36950;BME280;22861;55.824;37.660;2022-07-06T10:31:45;99729.56;;;33.27;32.58
36950;BME280;22861;55.824;37.660;2022-07-06T10:34:13;99731.19;;;33.22;32.74
36950;BME280;22861;55.824;37.660;2022-07-06T10:36:41;99730.06;;;33.09;33.21
36950;BME280;22861;55.824;37.660;2022-07-06T10:39:08;99729.97;;;32.89;33.26
36950;BME280;22861;55.824;37.660;2022-07-06T10:41:52;99721.97;;;32.74;33.87
36950;BME280;22861;55.824;37.660;2022-07-06T10:44:21;99729.03;;;32.75;34.05
36950;BME280;22861;55.824;37.660;2022-07-06T10:46:54;99725.00;;;32.99;32.92
36950;BME280;22861;55.824;37.660;2022-07-06T10:49:22;99726.59;;;32.87;33.18
36950;BME280;22861;55.824;37.660;2022-07-06T10:51:49;99722.47;;;32.85;32.76
36950;BME280;22861;55.824;37.660;2022-07-06T10:54:16;99716.06;;;32.92;34.07
36950;BME280;22861;55.824;37.660;2022-07-06T10:56:49;99721.78;;;33.11;33.28
36950;BME280;22861;55.824;37.660;2022-07-06T11:02:11;99707.38;;;33.39;32.71
36950;BME280;22861;55.824;37.660;2022-07-06T11:04:38;99702.81;;;32.97;33.33
36950;BME280;22861;55.824;37.660;2022-07-06T11:07:12;99707.88;;;33.14;32.52
36950;BME280;22861;55.824;37.660;2022-07-06T11:09:38;99701.13;;;32.96;31.67
36950;BME280;22861;55.824;37.660;2022-07-06T11:12:24;99704.50;;;33.40;32.04
36950;BME280;22861;55.824;37.660;2022-07-06T11:14:51;99709.09;;;33.11;32.30
36950;BME280;22861;55.824;37.660;2022-07-06T11:17:17;99707.19;;;32.98;31.37
36950;BME280;22861;55.824;37.660;2022-07-06T11:19:52;99696.91;;;33.15;31.00
36950;BME280;22861;55.824;37.660;2022-07-06T11:22:20;99698.84;;;32.93;31.98
36950;BME280;22861;55.824;37.660;2022-07-06T11:24:46;99696.13;;;32.87;32.70
36950;BME280;22861;55.824;37.660;2022-07-06T11:27:12;99701.69;;;32.78;33.76
36950;BME280;22861;55.824;37.660;2022-07-06T11:29:38;99697.84;;;32.66;32.66
36950;BME280;22861;55.824;37.660;2022-07-06T11:32:05;99697.53;;;32.83;33.31
36950;BME280;22861;55.824;37.660;2022-07-06T11:34:36;99684.97;;;32.96;32.62
36950;BME280;22861;55.824;37.660;2022-07-06T11:37:06;99699.13;;;33.05;31.75
36950;BME280;22861;55.824;37.660;2022-07-06T11:39:37;99694.81;;;33.17;31.45
36950;BME280;22861;55.824;37.660;2022-07-06T11:42:05;99690.34;;;33.31;31.14
36950;BME280;22861;55.824;37.660;2022-07-06T11:44:31;99680.81;;;33.36;30.21
36950;BME280;22861;55.824;37.660;2022-07-06T11:46:58;99675.81;;;33.32;30.99
36950;BME280;22861;55.824;37.660;2022-07-06T11:49:26;99682.44;;;33.23;30.88
36950;BME280;22861;55.824;37.660;2022-07-06T11:51:52;99674.03;;;33.11;30.85
36950;BME280;22861;55.824;37.660;2022-07-06T11:54:19;99680.25;;;33.05;30.26
36950;BME280;22861;55.824;37.660;2022-07-06T11:56:56;99682.84;;;33.20;30.42
36950;BME280;22861;55.824;37.660;2022-07-06T11:59:31;99680.97;;;33.82;30.08
36950;BME280;22861;55.824;37.660;2022-07-06T12:02:05;99679.34;;;33.33;30.41
36950;BME280;22861;55.824;37.660;2022-07-06T12:04:32;99676.91;;;33.03;30.62
36950;BME280;22861;55.824;37.660;2022-07-06T12:07:05;99677.25;;;33.22;31.07
36950;BME280;22861;55.824;37.660;2022-07-06T12:09:33;99674.03;;;33.11;32.68
36950;BME280;22861;55.824;37.660;2022-07-06T12:11:59;99662.84;;;33.08;30.99
36950;BME280;22861;55.824;37.660;2022-07-06T12:14:28;99668.69;;;33.18;30.82
36950;BME280;22861;55.824;37.660;2022-07-06T12:16:54;99657.75;;;33.26;30.43
36950;BME280;22861;55.824;37.660;2022-07-06T12:19:23;99660.94;;;33.50;30.48
36950;BME280;22861;55.824;37.660;2022-07-06T12:21:51;99653.69;;;33.64;30.10
36950;BME280;22861;55.824;37.660;2022-07-06T12:24:24;99656.44;;;33.91;29.30
36950;BME280;22861;55.824;37.660;2022-07-06T12:26:51;99661.44;;;33.94;29.43
36950;BME280;22861;55.824;37.660;2022-07-06T12:29:17;99657.28;;;34.04;29.53
36950;BME280;22861;55.824;37.660;2022-07-06T12:34:19;99647.66;;;34.75;28.37
36950;BME280;22861;55.824;37.660;2022-07-06T12:36:51;99647.72;;;33.75;29.37
36950;BME280;22861;55.824;37.660;2022-07-06T12:39:19;99643.09;;;33.69;29.83
36950;BME280;22861;55.824;37.660;2022-07-06T12:41:51;99638.59;;;33.90;30.15
36950;BME280;22861;55.824;37.660;2022-07-06T12:44:19;99646.50;;;33.98;28.94
36950;BME280;22861;55.824;37.660;2022-07-06T12:46:45;99646.50;;;33.98;28.30
36950;BME280;22861;55.824;37.660;2022-07-06T12:52:14;99645.22;;;34.47;27.82
36950;BME280;22861;55.824;37.660;2022-07-06T12:57:12;99648.16;;;34.06;28.65
36950;BME280;22861;55.824;37.660;2022-07-06T13:02:07;99653.34;;;34.07;29.30
36950;BME280;22861;55.824;37.660;2022-07-06T13:04:35;99653.13;;;34.09;29.24